sensor_id;sensor_type;location;lat;lon;timestamp;temperature;humidity
9215;DHT22;4642;51.364;6.788;2023-05-10T00:01:27;13.60;99.90
9215;DHT22;4642;51.364;6.788;2023-05-10T00:03:53;13.60;99.90
9215;DHT22;4642;51.364;6.788;2023-05-10T00:06:18;13.60;99.90
9215;DHT22;4642;51.364;6.788;2023-05-10T00:08:45;13.60;99.90
9215;DHT22;4642;51.364;6.788;2023-05-10T00:11:10;13.60;99.90
9215;DHT22;4642;51.364;6.788;2023-05-10T00:13:36;13.60;99.90
9215;DHT22;4642;51.364;6.788;2023-05-10T00:16:02;13.60;99.90
9215;DHT22;4642;51.364;6.788;2023-05-10T00:18:27;13.60;99.90
9215;DHT22;4642;51.364;6.788;2023-05-10T00:20:53;13.60;99.90
9215;DHT22;4642;51.364;6.788;2023-05-10T00:23:18;13.50;99.90
9215;DHT22;4642;51.364;6.788;2023-05-10T00:25:44;13.60;99.90
9215;DHT22;4642;51.364;6.788;2023-05-10T00:28:09;13.50;99.90
9215;DHT22;4642;51.364;6.788;2023-05-10T00:30:35;13.40;99.90
9215;DHT22;4642;51.364;6.788;2023-05-10T00:33:00;13.40;99.90
9215;DHT22;4642;51.364;6.788;2023-05-10T00:35:26;13.40;99.90
9215;DHT22;4642;51.364;6.788;2023-05-10T00:37:52;13.30;99.90
9215;DHT22;4642;51.364;6.788;2023-05-10T00:40:17;13.30;99.90
9215;DHT22;4642;51.364;6.788;2023-05-10T00:42:43;13.30;99.90
9215;DHT22;4642;51.364;6.788;2023-05-10T00:45:08;13.30;99.90
9215;DHT22;4642;51.364;6.788;2023-05-10T00:47:34;13.30;99.90
9215;DHT22;4642;51.364;6.788;2023-05-10T00:50:00;13.30;99.90
9215;DHT22;4642;51.364;6.788;2023-05-10T00:52:27;13.30;99.90
9215;DHT22;4642;51.364;6.788;2023-05-10T00:54:53;13.30;99.90
9215;DHT22;4642;51.364;6.788;2023-05-10T00:57:19;13.30;99.90
9215;DHT22;4642;51.364;6.788;2023-05-10T00:59:46;13.30;99.90
9215;DHT22;4642;51.364;6.788;2023-05-10T01:02:12;13.20;99.90
9215;DHT22;4642;51.364;6.788;2023-05-10T01:04:38;13.20;99.90
9215;DHT22;4642;51.364;6.788;2023-05-10T01:07:04;13.20;99.90
9215;DHT22;4642;51.364;6.788;2023-05-10T01:09:30;13.20;99.90
9215;DHT22;4642;51.364;6.788;2023-05-10T01:11:56;13.20;99.90
9215;DHT22;4642;51.364;6.788;2023-05-10T01:14:22;13.20;99.90
9215;DHT22;4642;51.364;6.788;2023-05-10T01:16:48;13.20;99.90
9215;DHT22;4642;51.364;6.788;2023-05-10T01:19:26;13.20;99.90
9215;DHT22;4642;51.364;6.788;2023-05-10T01:22:02;13.20;99.90
9215;DHT22;4642;51.364;6.788;2023-05-10T01:32:46;13.10;99.90
9215;DHT22;4642;51.364;6.788;2023-05-10T01:35:23;13.10;99.90
9215;DHT22;4642;51.364;6.788;2023-05-10T01:37:59;13.10;99.90
9215;DHT22;4642;51.364;6.788;2023-05-10T01:40:35;13.10;99.90
9215;DHT22;4642;51.364;6.788;2023-05-10T01:43:04;13.10;99.90
9215;DHT22;4642;51.364;6.788;2023-05-10T01:48:11;13.00;99.90
9215;DHT22;4642;51.364;6.788;2023-05-10T01:50:43;13.00;99.90
9215;DHT22;4642;51.364;6.788;2023-05-10T01:53:10;13.00;99.90
9215;DHT22;4642;51.364;6.788;2023-05-10T01:55:51;13.00;99.90
9215;DHT22;4642;51.364;6.788;2023-05-10T01:58:28;13.00;99.90
9215;DHT22;4642;51.364;6.788;2023-05-10T02:00:54;13.00;99.90
9215;DHT22;4642;51.364;6.788;2023-05-10T02:03:22;13.00;99.90
9215;DHT22;4642;51.364;6.788;2023-05-10T02:05:49;13.00;99.90
9215;DHT22;4642;51.364;6.788;2023-05-10T02:08:16;13.10;99.90
9215;DHT22;4642;51.364;6.788;2023-05-10T02:10:43;13.10;99.90
9215;DHT22;4642;51.364;6.788;2023-05-10T02:13:11;13.10;99.90
9215;DHT22;4642;51.364;6.788;2023-05-10T02:15:38;13.20;99.90
9215;DHT22;4642;51.364;6.788;2023-05-10T02:18:05;13.20;99.90
9215;DHT22;4642;51.364;6.788;2023-05-10T02:20:32;13.20;99.90
9215;DHT22;4642;51.364;6.788;2023-05-10T02:22:59;13.20;99.90
9215;DHT22;4642;51.364;6.788;2023-05-10T02:25:25;13.20;99.90
9215;DHT22;4642;51.364;6.788;2023-05-10T02:27:55;13.20;99.90
9215;DHT22;4642;51.364;6.788;2023-05-10T02:30:22;13.20;99.90
9215;DHT22;4642;51.364;6.788;2023-05-10T02:32:49;13.20;99.90
9215;DHT22;4642;51.364;6.788;2023-05-10T02:35:16;13.20;99.90
9215;DHT22;4642;51.364;6.788;2023-05-10T02:37:42;13.20;99.90
9215;DHT22;4642;51.364;6.788;2023-05-10T02:40:10;13.20;99.90
9215;DHT22;4642;51.364;6.788;2023-05-10T02:42:37;13.20;99.90
9215;DHT22;4642;51.364;6.788;2023-05-10T02:45:10;13.20;99.90
9215;DHT22;4642;51.364;6.788;2023-05-10T02:47:36;13.20;99.90
9215;DHT22;4642;51.364;6.788;2023-05-10T02:50:02;13.20;99.90
9215;DHT22;4642;51.364;6.788;2023-05-10T02:52:30;13.20;99.90
9215;DHT22;4642;51.364;6.788;2023-05-10T02:55:02;13.20;99.90
9215;DHT22;4642;51.364;6.788;2023-05-10T02:57:33;13.20;99.90
9215;DHT22;4642;51.364;6.788;2023-05-10T03:00:00;13.20;99.90
9215;DHT22;4642;51.364;6.788;2023-05-10T03:02:26;13.20;99.90
9215;DHT22;4642;51.364;6.788;2023-05-10T03:04:52;13.10;99.90
9215;DHT22;4642;51.364;6.788;2023-05-10T03:07:18;13.20;99.90
9215;DHT22;4642;51.364;6.788;2023-05-10T03:09:47;13.20;99.90
9215;DHT22;4642;51.364;6.788;2023-05-10T03:17:48;13.30;99.90
9215;DHT22;4642;51.364;6.788;2023-05-10T03:20:41;13.30;99.90
9215;DHT22;4642;51.364;6.788;2023-05-10T03:23:09;13.20;99.90
9215;DHT22;4642;51.364;6.788;2023-05-10T03:25:37;13.30;99.90
9215;DHT22;4642;51.364;6.788;2023-05-10T03:28:05;13.20;99.90
9215;DHT22;4642;51.364;6.788;2023-05-10T03:30:31;13.30;99.90
9215;DHT22;4642;51.364;6.788;2023-05-10T03:33:04;13.30;99.90
9215;DHT22;4642;51.364;6.788;2023-05-10T03:35:30;13.30;99.90
9215;DHT22;4642;51.364;6.788;2023-05-10T03:37:56;13.30;99.90
9215;DHT22;4642;51.364;6.788;2023-05-10T03:40:21;13.20;99.90
9215;DHT22;4642;51.364;6.788;2023-05-10T03:42:48;13.30;99.90
9215;DHT22;4642;51.364;6.788;2023-05-10T03:45:13;13.30;99.90
9215;DHT22;4642;51.364;6.788;2023-05-10T03:47:39;13.30;99.90
9215;DHT22;4642;51.364;6.788;2023-05-10T03:50:05;13.30;99.90
9215;DHT22;4642;51.364;6.788;2023-05-10T03:52:31;13.30;99.90
9215;DHT22;4642;51.364;6.788;2023-05-10T03:54:57;13.30;99.90
9215;DHT22;4642;51.364;6.788;2023-05-10T03:57:22;13.20;99.90
9215;DHT22;4642;51.364;6.788;2023-05-10T03:59:48;13.20;99.90
9215;DHT22;4642;51.364;6.788;2023-05-10T04:02:13;13.20;99.90
9215;DHT22;4642;51.364;6.788;2023-05-10T04:04:39;13.20;99.90
9215;DHT22;4642;51.364;6.788;2023-05-10T04:07:04;13.20;99.90
9215;DHT22;4642;51.364;6.788;2023-05-10T04:09:30;13.20;99.90
9215;DHT22;4642;51.364;6.788;2023-05-10T04:11:56;13.20;99.90
9215;DHT22;4642;51.364;6.788;2023-05-10T04:14:21;13.20;99.90
9215;DHT22;4642;51.364;6.788;2023-05-10T04:16:47;13.20;99.90
9215;DHT22;4642;51.364;6.788;2023-05-10T04:19:12;13.30;99.90
9215;DHT22;4642;51.364;6.788;2023-05-10T04:21:38;13.20;99.90
9215;DHT22;4642;51.364;6.788;2023-05-10T04:24:04;13.30;99.90
9215;DHT22;4642;51.364;6.788;2023-05-10T04:26:29;13.20;99.90
9215;DHT22;4642;51.364;6.788;2023-05-10T04:28:55;13.30;99.90
9215;DHT22;4642;51.364;6.788;2023-05-10T04:31:20;13.30;99.90
9215;DHT22;4642;51.364;6.788;2023-05-10T04:33:46;13.30;99.90
9215;DHT22;4642;51.364;6.788;2023-05-10T04:36:12;13.70;99.90
9215;DHT22;4642;51.364;6.788;2023-05-10T04:38:37;13.30;99.90
9215;DHT22;4642;51.364;6.788;2023-05-10T04:41:04;13.30;99.90
9215;DHT22;4642;51.364;6.788;2023-05-10T04:43:30;13.30;99.90
9215;DHT22;4642;51.364;6.788;2023-05-10T04:45:59;13.30;99.90
9215;DHT22;4642;51.364;6.788;2023-05-10T04:48:24;13.30;99.90
9215;DHT22;4642;51.364;6.788;2023-05-10T04:50:50;13.30;99.90
9215;DHT22;4642;51.364;6.788;2023-05-10T04:53:15;13.30;99.90
9215;DHT22;4642;51.364;6.788;2023-05-10T04:55:41;13.30;99.90
9215;DHT22;4642;51.364;6.788;2023-05-10T04:58:07;13.30;99.90
9215;DHT22;4642;51.364;6.788;2023-05-10T05:00:33;13.40;99.90
9215;DHT22;4642;51.364;6.788;2023-05-10T05:02:59;13.40;99.90
9215;DHT22;4642;51.364;6.788;2023-05-10T05:05:24;13.30;99.90
9215;DHT22;4642;51.364;6.788;2023-05-10T05:07:50;13.40;99.90
9215;DHT22;4642;51.364;6.788;2023-05-10T05:10:16;13.40;99.90
9215;DHT22;4642;51.364;6.788;2023-05-10T05:12:41;13.40;99.90
9215;DHT22;4642;51.364;6.788;2023-05-10T05:15:07;13.40;99.90
9215;DHT22;4642;51.364;6.788;2023-05-10T05:17:34;13.40;99.90
9215;DHT22;4642;51.364;6.788;2023-05-10T05:20:00;13.40;99.90
9215;DHT22;4642;51.364;6.788;2023-05-10T05:22:25;13.40;99.90
9215;DHT22;4642;51.364;6.788;2023-05-10T05:24:57;13.40;99.90
9215;DHT22;4642;51.364;6.788;2023-05-10T05:27:24;13.40;99.90
9215;DHT22;4642;51.364;6.788;2023-05-10T05:29:53;13.50;99.90
9215;DHT22;4642;51.364;6.788;2023-05-10T05:32:18;13.50;99.90
9215;DHT22;4642;51.364;6.788;2023-05-10T05:34:45;13.50;99.90
9215;DHT22;4642;51.364;6.788;2023-05-10T05:37:14;13.50;99.90
9215;DHT22;4642;51.364;6.788;2023-05-10T05:39:40;13.50;99.90
9215;DHT22;4642;51.364;6.788;2023-05-10T05:42:06;13.50;99.90
9215;DHT22;4642;51.364;6.788;2023-05-10T05:44:31;13.50;99.90
9215;DHT22;4642;51.364;6.788;2023-05-10T05:46:57;13.60;99.90
9215;DHT22;4642;51.364;6.788;2023-05-10T05:49:23;13.60;99.90
9215;DHT22;4642;51.364;6.788;2023-05-10T05:51:48;13.60;99.90
9215;DHT22;4642;51.364;6.788;2023-05-10T05:54:15;13.60;99.90
9215;DHT22;4642;51.364;6.788;2023-05-10T05:56:41;13.60;99.90
9215;DHT22;4642;51.364;6.788;2023-05-10T05:59:06;13.60;99.90
9215;DHT22;4642;51.364;6.788;2023-05-10T06:01:32;13.50;99.90
9215;DHT22;4642;51.364;6.788;2023-05-10T06:03:57;13.50;99.90
9215;DHT22;4642;51.364;6.788;2023-05-10T06:06:23;13.50;99.90
9215;DHT22;4642;51.364;6.788;2023-05-10T06:08:48;13.60;99.90
9215;DHT22;4642;51.364;6.788;2023-05-10T06:11:14;13.60;99.90
9215;DHT22;4642;51.364;6.788;2023-05-10T06:13:39;13.50;99.90
9215;DHT22;4642;51.364;6.788;2023-05-10T06:16:05;13.60;99.90
9215;DHT22;4642;51.364;6.788;2023-05-10T06:18:31;13.60;99.90
9215;DHT22;4642;51.364;6.788;2023-05-10T06:20:56;13.50;99.90
9215;DHT22;4642;51.364;6.788;2023-05-10T06:23:22;13.50;99.90
9215;DHT22;4642;51.364;6.788;2023-05-10T06:25:48;13.60;99.90
9215;DHT22;4642;51.364;6.788;2023-05-10T06:28:13;13.60;99.90
9215;DHT22;4642;51.364;6.788;2023-05-10T06:30:39;13.60;99.90
9215;DHT22;4642;51.364;6.788;2023-05-10T06:33:04;13.60;99.90
9215;DHT22;4642;51.364;6.788;2023-05-10T06:35:30;13.50;99.90
9215;DHT22;4642;51.364;6.788;2023-05-10T06:37:57;13.60;99.90
9215;DHT22;4642;51.364;6.788;2023-05-10T06:40:23;13.60;99.90
9215;DHT22;4642;51.364;6.788;2023-05-10T06:42:48;13.60;99.90
9215;DHT22;4642;51.364;6.788;2023-05-10T06:45:15;13.60;99.90
9215;DHT22;4642;51.364;6.788;2023-05-10T06:47:41;13.70;99.90
9215;DHT22;4642;51.364;6.788;2023-05-10T06:50:08;13.60;99.90
9215;DHT22;4642;51.364;6.788;2023-05-10T06:52:33;13.70;99.90
9215;DHT22;4642;51.364;6.788;2023-05-10T06:54:59;13.70;99.90
9215;DHT22;4642;51.364;6.788;2023-05-10T06:57:25;13.80;99.90
9215;DHT22;4642;51.364;6.788;2023-05-10T06:59:51;13.70;99.90
9215;DHT22;4642;51.364;6.788;2023-05-10T07:02:17;13.70;99.90
9215;DHT22;4642;51.364;6.788;2023-05-10T07:04:43;13.70;99.90
9215;DHT22;4642;51.364;6.788;2023-05-10T07:07:08;13.80;99.90
9215;DHT22;4642;51.364;6.788;2023-05-10T07:09:34;13.70;99.90
9215;DHT22;4642;51.364;6.788;2023-05-10T07:11:59;13.70;99.90
9215;DHT22;4642;51.364;6.788;2023-05-10T07:14:27;13.70;99.90
9215;DHT22;4642;51.364;6.788;2023-05-10T07:16:52;13.70;99.90
9215;DHT22;4642;51.364;6.788;2023-05-10T07:19:18;13.80;99.90
9215;DHT22;4642;51.364;6.788;2023-05-10T07:21:43;13.70;99.90
9215;DHT22;4642;51.364;6.788;2023-05-10T07:24:09;13.70;99.90
9215;DHT22;4642;51.364;6.788;2023-05-10T07:26:34;13.70;99.90
9215;DHT22;4642;51.364;6.788;2023-05-10T07:29:00;13.70;99.90
9215;DHT22;4642;51.364;6.788;2023-05-10T07:31:26;13.60;99.90
9215;DHT22;4642;51.364;6.788;2023-05-10T07:33:51;13.70;99.90
9215;DHT22;4642;51.364;6.788;2023-05-10T07:36:17;13.70;99.90
9215;DHT22;4642;51.364;6.788;2023-05-10T07:38:42;13.70;99.90
9215;DHT22;4642;51.364;6.788;2023-05-10T07:41:08;13.80;99.90
9215;DHT22;4642;51.364;6.788;2023-05-10T07:43:33;13.80;99.90
9215;DHT22;4642;51.364;6.788;2023-05-10T07:45:59;13.90;99.90
9215;DHT22;4642;51.364;6.788;2023-05-10T07:48:25;13.90;99.90
9215;DHT22;4642;51.364;6.788;2023-05-10T07:50:51;14.00;99.90
9215;DHT22;4642;51.364;6.788;2023-05-10T07:53:16;14.10;99.90
9215;DHT22;4642;51.364;6.788;2023-05-10T07:55:43;14.10;99.90
9215;DHT22;4642;51.364;6.788;2023-05-10T07:58:09;14.10;99.90
9215;DHT22;4642;51.364;6.788;2023-05-10T08:00:34;14.20;99.90
9215;DHT22;4642;51.364;6.788;2023-05-10T08:03:00;14.20;99.90
9215;DHT22;4642;51.364;6.788;2023-05-10T08:05:26;14.20;99.90
9215;DHT22;4642;51.364;6.788;2023-05-10T08:07:51;14.10;99.90
9215;DHT22;4642;51.364;6.788;2023-05-10T08:10:17;14.10;99.90
9215;DHT22;4642;51.364;6.788;2023-05-10T08:12:42;14.20;99.90
9215;DHT22;4642;51.364;6.788;2023-05-10T08:15:08;14.20;99.90
9215;DHT22;4642;51.364;6.788;2023-05-10T08:17:34;14.30;99.90
9215;DHT22;4642;51.364;6.788;2023-05-10T08:19:59;14.20;99.90
9215;DHT22;4642;51.364;6.788;2023-05-10T08:22:25;14.20;99.90
9215;DHT22;4642;51.364;6.788;2023-05-10T08:24:51;14.30;99.90
9215;DHT22;4642;51.364;6.788;2023-05-10T08:27:16;14.30;99.90
9215;DHT22;4642;51.364;6.788;2023-05-10T08:29:42;14.40;99.90
9215;DHT22;4642;51.364;6.788;2023-05-10T08:32:07;14.40;99.90
9215;DHT22;4642;51.364;6.788;2023-05-10T08:34:33;14.30;99.90
9215;DHT22;4642;51.364;6.788;2023-05-10T08:36:58;14.30;99.90
9215;DHT22;4642;51.364;6.788;2023-05-10T08:39:24;14.40;99.90
9215;DHT22;4642;51.364;6.788;2023-05-10T08:41:51;14.40;99.90
9215;DHT22;4642;51.364;6.788;2023-05-10T08:44:19;14.40;99.90
9215;DHT22;4642;51.364;6.788;2023-05-10T08:46:46;14.50;99.90
9215;DHT22;4642;51.364;6.788;2023-05-10T08:49:17;14.50;99.90
9215;DHT22;4642;51.364;6.788;2023-05-10T08:51:51;14.40;99.90
9215;DHT22;4642;51.364;6.788;2023-05-10T08:54:17;14.40;99.90
9215;DHT22;4642;51.364;6.788;2023-05-10T08:56:43;14.40;99.90
9215;DHT22;4642;51.364;6.788;2023-05-10T08:59:08;14.30;99.90
9215;DHT22;4642;51.364;6.788;2023-05-10T09:01:35;14.20;99.90
9215;DHT22;4642;51.364;6.788;2023-05-10T09:04:02;14.20;99.90
9215;DHT22;4642;51.364;6.788;2023-05-10T09:06:28;14.20;99.90
9215;DHT22;4642;51.364;6.788;2023-05-10T09:08:54;14.20;99.90
9215;DHT22;4642;51.364;6.788;2023-05-10T09:11:20;14.10;99.90
9215;DHT22;4642;51.364;6.788;2023-05-10T09:13:47;14.10;99.90
9215;DHT22;4642;51.364;6.788;2023-05-10T09:16:13;14.10;99.90
9215;DHT22;4642;51.364;6.788;2023-05-10T09:18:38;14.20;99.90
9215;DHT22;4642;51.364;6.788;2023-05-10T09:21:04;14.20;99.90
9215;DHT22;4642;51.364;6.788;2023-05-10T09:23:30;14.20;99.90
9215;DHT22;4642;51.364;6.788;2023-05-10T09:26:07;14.30;99.90
9215;DHT22;4642;51.364;6.788;2023-05-10T09:28:33;14.40;99.90
9215;DHT22;4642;51.364;6.788;2023-05-10T09:30:59;14.50;99.90
9215;DHT22;4642;51.364;6.788;2023-05-10T09:33:25;14.60;99.90
9215;DHT22;4642;51.364;6.788;2023-05-10T09:35:51;14.70;99.90
9215;DHT22;4642;51.364;6.788;2023-05-10T09:38:17;14.70;99.90
9215;DHT22;4642;51.364;6.788;2023-05-10T09:40:51;14.70;99.90
9215;DHT22;4642;51.364;6.788;2023-05-10T09:43:20;14.70;99.90
9215;DHT22;4642;51.364;6.788;2023-05-10T09:45:48;14.80;99.90
9215;DHT22;4642;51.364;6.788;2023-05-10T09:48:14;14.70;99.90
9215;DHT22;4642;51.364;6.788;2023-05-10T09:50:39;14.60;99.90
9215;DHT22;4642;51.364;6.788;2023-05-10T09:53:05;14.70;99.90
9215;DHT22;4642;51.364;6.788;2023-05-10T09:55:46;14.60;99.90
9215;DHT22;4642;51.364;6.788;2023-05-10T09:58:12;14.60;99.90
9215;DHT22;4642;51.364;6.788;2023-05-10T10:00:40;14.60;99.90
9215;DHT22;4642;51.364;6.788;2023-05-10T10:03:07;14.70;99.90
9215;DHT22;4642;51.364;6.788;2023-05-10T10:05:40;14.80;99.90
9215;DHT22;4642;51.364;6.788;2023-05-10T10:08:06;14.90;99.90
9215;DHT22;4642;51.364;6.788;2023-05-10T10:10:33;14.90;99.90
9215;DHT22;4642;51.364;6.788;2023-05-10T10:12:59;14.90;99.90
9215;DHT22;4642;51.364;6.788;2023-05-10T10:15:25;14.90;99.90
9215;DHT22;4642;51.364;6.788;2023-05-10T10:17:51;14.80;99.90
9215;DHT22;4642;51.364;6.788;2023-05-10T10:20:18;14.70;99.90
9215;DHT22;4642;51.364;6.788;2023-05-10T10:22:46;14.60;99.90
9215;DHT22;4642;51.364;6.788;2023-05-10T10:25:13;14.50;99.90
9215;DHT22;4642;51.364;6.788;2023-05-10T10:27:59;14.50;99.90
9215;DHT22;4642;51.364;6.788;2023-05-10T10:30:47;14.50;99.90
9215;DHT22;4642;51.364;6.788;2023-05-10T10:36:06;14.50;99.90
9215;DHT22;4642;51.364;6.788;2023-05-10T10:38:56;14.60;99.90
9215;DHT22;4642;51.364;6.788;2023-05-10T10:41:34;14.60;99.90
9215;DHT22;4642;51.364;6.788;2023-05-10T10:47:21;14.70;99.90
9215;DHT22;4642;51.364;6.788;2023-05-10T10:49:53;14.70;99.90
9215;DHT22;4642;51.364;6.788;2023-05-10T10:52:35;14.90;99.90
9215;DHT22;4642;51.364;6.788;2023-05-10T10:57:49;14.90;99.90
9215;DHT22;4642;51.364;6.788;2023-05-10T11:00:29;14.90;99.90
9215;DHT22;4642;51.364;6.788;2023-05-10T11:03:15;14.80;99.90
9215;DHT22;4642;51.364;6.788;2023-05-10T11:05:50;14.80;99.90
9215;DHT22;4642;51.364;6.788;2023-05-10T11:08:33;14.80;99.90
9215;DHT22;4642;51.364;6.788;2023-05-10T11:13:37;14.90;99.90
9215;DHT22;4642;51.364;6.788;2023-05-10T11:16:19;14.90;99.90
9215;DHT22;4642;51.364;6.788;2023-05-10T11:19:09;14.90;99.90
9215;DHT22;4642;51.364;6.788;2023-05-10T11:21:48;14.90;99.90
9215;DHT22;4642;51.364;6.788;2023-05-10T11:24:17;15.00;99.90
9215;DHT22;4642;51.364;6.788;2023-05-10T11:26:43;14.90;99.90
9215;DHT22;4642;51.364;6.788;2023-05-10T11:29:09;15.00;99.90
9215;DHT22;4642;51.364;6.788;2023-05-10T11:31:42;15.00;99.90
9215;DHT22;4642;51.364;6.788;2023-05-10T11:34:09;15.00;99.90
9215;DHT22;4642;51.364;6.788;2023-05-10T11:36:36;15.00;99.90
9215;DHT22;4642;51.364;6.788;2023-05-10T11:39:02;15.10;99.90
9215;DHT22;4642;51.364;6.788;2023-05-10T11:41:29;15.10;99.90
9215;DHT22;4642;51.364;6.788;2023-05-10T11:43:56;15.10;99.90
9215;DHT22;4642;51.364;6.788;2023-05-10T11:46:23;15.20;99.90
9215;DHT22;4642;51.364;6.788;2023-05-10T11:48:50;15.10;99.90
9215;DHT22;4642;51.364;6.788;2023-05-10T11:51:20;15.10;99.90
9215;DHT22;4642;51.364;6.788;2023-05-10T11:53:46;15.10;99.90
9215;DHT22;4642;51.364;6.788;2023-05-10T11:56:12;15.10;99.90
9215;DHT22;4642;51.364;6.788;2023-05-10T11:58:38;15.20;99.90
9215;DHT22;4642;51.364;6.788;2023-05-10T12:01:06;15.20;99.90
9215;DHT22;4642;51.364;6.788;2023-05-10T12:03:32;15.30;99.90
9215;DHT22;4642;51.364;6.788;2023-05-10T12:05:58;15.40;99.90
9215;DHT22;4642;51.364;6.788;2023-05-10T12:08:28;15.40;99.90
9215;DHT22;4642;51.364;6.788;2023-05-10T12:11:04;15.40;99.90
9215;DHT22;4642;51.364;6.788;2023-05-10T12:13:30;15.40;99.90
9215;DHT22;4642;51.364;6.788;2023-05-10T12:15:59;15.40;99.90
9215;DHT22;4642;51.364;6.788;2023-05-10T12:18:25;15.40;99.90
9215;DHT22;4642;51.364;6.788;2023-05-10T12:20:54;15.40;99.90
9215;DHT22;4642;51.364;6.788;2023-05-10T12:23:20;15.40;99.90
9215;DHT22;4642;51.364;6.788;2023-05-10T12:25:46;15.50;99.90
9215;DHT22;4642;51.364;6.788;2023-05-10T12:28:12;15.50;99.90
9215;DHT22;4642;51.364;6.788;2023-05-10T12:30:37;15.50;99.90
9215;DHT22;4642;51.364;6.788;2023-05-10T12:35:32;15.70;99.90
9215;DHT22;4642;51.364;6.788;2023-05-10T12:37:58;15.90;99.90
9215;DHT22;4642;51.364;6.788;2023-05-10T12:40:24;15.90;99.90
9215;DHT22;4642;51.364;6.788;2023-05-10T12:42:50;16.00;99.90
9215;DHT22;4642;51.364;6.788;2023-05-10T12:45:17;16.10;99.90
9215;DHT22;4642;51.364;6.788;2023-05-10T12:47:43;16.10;1.00
9215;DHT22;4642;51.364;6.788;2023-05-10T12:50:09;16.20;1.00
9215;DHT22;4642;51.364;6.788;2023-05-10T12:52:35;16.40;1.00
9215;DHT22;4642;51.364;6.788;2023-05-10T12:55:01;16.40;1.00
9215;DHT22;4642;51.364;6.788;2023-05-10T12:57:28;16.40;1.00
9215;DHT22;4642;51.364;6.788;2023-05-10T12:59:54;16.40;99.90
9215;DHT22;4642;51.364;6.788;2023-05-10T13:02:20;16.50;1.00
9215;DHT22;4642;51.364;6.788;2023-05-10T13:04:47;16.70;99.90
9215;DHT22;4642;51.364;6.788;2023-05-10T13:07:13;16.80;99.90
9215;DHT22;4642;51.364;6.788;2023-05-10T13:09:39;16.90;99.90
9215;DHT22;4642;51.364;6.788;2023-05-10T13:12:04;17.00;1.00
9215;DHT22;4642;51.364;6.788;2023-05-10T13:14:30;17.10;99.90
9215;DHT22;4642;51.364;6.788;2023-05-10T13:16:56;17.10;1.00
9215;DHT22;4642;51.364;6.788;2023-05-10T13:19:21;17.30;1.00
9215;DHT22;4642;51.364;6.788;2023-05-10T13:21:47;17.30;1.00
9215;DHT22;4642;51.364;6.788;2023-05-10T13:24:13;17.50;99.90
9215;DHT22;4642;51.364;6.788;2023-05-10T13:26:39;17.50;99.90
9215;DHT22;4642;51.364;6.788;2023-05-10T13:29:05;17.60;99.90
9215;DHT22;4642;51.364;6.788;2023-05-10T13:31:31;17.60;1.00
9215;DHT22;4642;51.364;6.788;2023-05-10T13:33:56;17.60;93.10
9215;DHT22;4642;51.364;6.788;2023-05-10T13:36:22;17.70;11.20
9215;DHT22;4642;51.364;6.788;2023-05-10T13:38:48;17.70;99.90
9215;DHT22;4642;51.364;6.788;2023-05-10T13:41:13;17.70;1.00
9215;DHT22;4642;51.364;6.788;2023-05-10T13:43:39;17.90;23.60
9215;DHT22;4642;51.364;6.788;2023-05-10T13:46:05;17.80;1.00
9215;DHT22;4642;51.364;6.788;2023-05-10T13:48:31;17.80;1.00
9215;DHT22;4642;51.364;6.788;2023-05-10T13:50:56;17.60;1.00
9215;DHT22;4642;51.364;6.788;2023-05-10T13:53:22;17.60;1.00
9215;DHT22;4642;51.364;6.788;2023-05-10T13:55:48;17.70;99.90
9215;DHT22;4642;51.364;6.788;2023-05-10T13:58:13;18.10;1.00
9215;DHT22;4642;51.364;6.788;2023-05-10T14:00:39;18.20;99.90
9215;DHT22;4642;51.364;6.788;2023-05-10T14:03:04;18.30;99.90
9215;DHT22;4642;51.364;6.788;2023-05-10T14:05:31;18.30;99.90
9215;DHT22;4642;51.364;6.788;2023-05-10T14:07:57;18.20;1.00
9215;DHT22;4642;51.364;6.788;2023-05-10T14:10:22;18.40;99.90
9215;DHT22;4642;51.364;6.788;2023-05-10T14:12:49;18.50;99.90
9215;DHT22;4642;51.364;6.788;2023-05-10T14:15:15;18.80;99.90
9215;DHT22;4642;51.364;6.788;2023-05-10T14:17:41;18.90;99.90
9215;DHT22;4642;51.364;6.788;2023-05-10T14:20:07;18.90;99.90
9215;DHT22;4642;51.364;6.788;2023-05-10T14:22:32;18.90;99.90
9215;DHT22;4642;51.364;6.788;2023-05-10T14:24:58;18.90;1.00
9215;DHT22;4642;51.364;6.788;2023-05-10T14:27:23;19.10;99.90
9215;DHT22;4642;51.364;6.788;2023-05-10T14:29:49;19.20;99.90
9215;DHT22;4642;51.364;6.788;2023-05-10T14:32:15;19.20;1.00
9215;DHT22;4642;51.364;6.788;2023-05-10T14:34:40;19.20;99.90
9215;DHT22;4642;51.364;6.788;2023-05-10T14:37:06;19.30;99.90
9215;DHT22;4642;51.364;6.788;2023-05-10T14:39:31;19.20;99.90
9215;DHT22;4642;51.364;6.788;2023-05-10T14:41:58;19.20;99.90
9215;DHT22;4642;51.364;6.788;2023-05-10T14:44:23;19.30;1.00
9215;DHT22;4642;51.364;6.788;2023-05-10T14:46:49;19.30;1.00
9215;DHT22;4642;51.364;6.788;2023-05-10T14:49:15;19.30;1.00
9215;DHT22;4642;51.364;6.788;2023-05-10T14:51:40;19.20;1.00
9215;DHT22;4642;51.364;6.788;2023-05-10T14:54:06;19.10;99.90
9215;DHT22;4642;51.364;6.788;2023-05-10T14:56:32;19.20;1.00
9215;DHT22;4642;51.364;6.788;2023-05-10T14:58:57;19.00;1.00
9215;DHT22;4642;51.364;6.788;2023-05-10T15:01:23;18.70;1.00
9215;DHT22;4642;51.364;6.788;2023-05-10T15:03:49;18.80;99.90
9215;DHT22;4642;51.364;6.788;2023-05-10T15:06:15;18.80;99.90
9215;DHT22;4642;51.364;6.788;2023-05-10T15:08:41;19.00;94.70
9215;DHT22;4642;51.364;6.788;2023-05-10T15:11:07;19.10;99.90
9215;DHT22;4642;51.364;6.788;2023-05-10T15:13:32;19.30;99.90
9215;DHT22;4642;51.364;6.788;2023-05-10T15:15:58;19.30;99.90
9215;DHT22;4642;51.364;6.788;2023-05-10T15:18:23;19.50;1.00
9215;DHT22;4642;51.364;6.788;2023-05-10T15:20:49;19.80;1.00
9215;DHT22;4642;51.364;6.788;2023-05-10T15:23:14;19.90;1.00
9215;DHT22;4642;51.364;6.788;2023-05-10T15:25:40;19.60;99.90
9215;DHT22;4642;51.364;6.788;2023-05-10T15:28:06;19.10;1.00
9215;DHT22;4642;51.364;6.788;2023-05-10T15:30:31;19.30;1.00
9215;DHT22;4642;51.364;6.788;2023-05-10T15:32:57;19.40;1.00
9215;DHT22;4642;51.364;6.788;2023-05-10T15:35:22;18.90;27.70
9215;DHT22;4642;51.364;6.788;2023-05-10T15:37:48;18.70;1.00
9215;DHT22;4642;51.364;6.788;2023-05-10T15:40:14;18.50;1.00
9215;DHT22;4642;51.364;6.788;2023-05-10T15:42:40;18.30;99.90
9215;DHT22;4642;51.364;6.788;2023-05-10T15:45:06;18.20;99.90
9215;DHT22;4642;51.364;6.788;2023-05-10T15:47:32;18.00;1.00
9215;DHT22;4642;51.364;6.788;2023-05-10T15:49:58;17.90;1.00
9215;DHT22;4642;51.364;6.788;2023-05-10T15:52:23;17.40;9.20
9215;DHT22;4642;51.364;6.788;2023-05-10T15:54:49;17.10;1.00
9215;DHT22;4642;51.364;6.788;2023-05-10T15:57:15;16.80;1.00
9215;DHT22;4642;51.364;6.788;2023-05-10T15:59:40;16.50;87.40
9215;DHT22;4642;51.364;6.788;2023-05-10T16:02:08;16.50;1.00
9215;DHT22;4642;51.364;6.788;2023-05-10T16:04:35;16.30;99.90
9215;DHT22;4642;51.364;6.788;2023-05-10T16:07:01;16.30;10.10
9215;DHT22;4642;51.364;6.788;2023-05-10T16:09:27;16.00;1.00
9215;DHT22;4642;51.364;6.788;2023-05-10T16:11:53;15.80;99.90
9215;DHT22;4642;51.364;6.788;2023-05-10T16:14:18;15.60;99.90
9215;DHT22;4642;51.364;6.788;2023-05-10T16:16:47;15.40;99.90
9215;DHT22;4642;51.364;6.788;2023-05-10T16:19:13;15.30;99.90
9215;DHT22;4642;51.364;6.788;2023-05-10T16:21:38;15.30;99.90
9215;DHT22;4642;51.364;6.788;2023-05-10T16:24:04;15.20;99.90
9215;DHT22;4642;51.364;6.788;2023-05-10T16:26:30;15.20;99.90
9215;DHT22;4642;51.364;6.788;2023-05-10T16:28:55;15.00;99.90
9215;DHT22;4642;51.364;6.788;2023-05-10T16:31:21;15.00;99.90